Abbott, Mississippi
Current Conditions -  °F | °C
As of 8:15 PM on Sunday 25 Jan 2015 (Local Time) from KSTF Reporting Station
Broken Clouds Broken Clouds  
Wind Chill: 44°   Ceiling: 10000
Heat Index: 46°   Visibility: 10mi
Dew Point: 43°   Wind: 6mph
Humidity: 87%   Direction: 290°WNW
Pressure: 29.84"   Gusts: NA
Location:  33.6681°N, 88.7618°W
Report Text: KSTF 260215Z AUTO 29005KT 10SM SCT055 BKN100 08/06 A2984 RMK AO2
Loading
Personal Weather Stations






























Interactive Weather Map New forecast layout! Learn more

10-Day Weather Forecast

Advertisements
Track Severe Weather on mobile